createdAt,value
2023-04-22T00:01:57.895Z,12.30
2023-04-22T00:04:25.480Z,13.95
2023-04-22T00:06:52.988Z,12.95
2023-04-22T00:09:20.233Z,15.82
2023-04-22T00:11:47.394Z,12.13
2023-04-22T00:14:14.567Z,9.60
2023-04-22T00:16:41.811Z,16.38
2023-04-22T00:19:10.089Z,11.05
2023-04-22T00:21:37.300Z,12.73
2023-04-22T00:24:04.513Z,12.52
2023-04-22T00:26:31.627Z,11.82
2023-04-22T00:28:58.685Z,9.82
2023-04-22T00:31:25.938Z,10.40
2023-04-22T00:33:53.156Z,13.30
2023-04-22T00:36:20.495Z,12.98
2023-04-22T00:38:51.276Z,8.90
2023-04-22T00:41:18.756Z,13.43
2023-04-22T00:43:46.684Z,9.15
2023-04-22T00:46:16.505Z,12.32
2023-04-22T00:48:43.901Z,15.57
2023-04-22T00:51:11.043Z,14.05
2023-04-22T00:53:38.210Z,13.57
2023-04-22T00:56:05.612Z,10.75
2023-04-22T00:58:33.813Z,10.25
2023-04-22T01:01:01.265Z,11.55
2023-04-22T01:03:30.917Z,12.35
2023-04-22T01:05:58.516Z,11.93
2023-04-22T01:08:32.118Z,15.55
2023-04-22T01:10:59.741Z,11.82
2023-04-22T01:13:26.952Z,12.05
2023-04-22T01:15:54.211Z,9.98
2023-04-22T01:18:21.317Z,15.00
2023-04-22T01:20:48.754Z,10.30
2023-04-22T01:23:22.909Z,11.95
2023-04-22T01:25:50.279Z,9.98
2023-04-22T01:28:17.952Z,10.48
2023-04-22T01:30:45.751Z,10.20
2023-04-22T01:33:13.207Z,12.25
2023-04-22T01:35:41.514Z,12.65
2023-04-22T01:38:11.656Z,11.68
2023-04-22T01:40:39.526Z,10.52
2023-04-22T01:43:06.813Z,14.80
2023-04-22T01:45:34.230Z,11.00
2023-04-22T01:48:01.463Z,15.38
2023-04-22T01:50:28.726Z,11.15
2023-04-22T01:52:56.546Z,11.68
2023-04-22T01:55:23.775Z,10.80
2023-04-22T01:57:51.036Z,14.23
2023-04-22T02:00:18.358Z,9.77
2023-04-22T02:02:45.819Z,13.55
2023-04-22T02:05:13.220Z,11.57
2023-04-22T02:07:40.506Z,11.48
2023-04-22T02:10:09.660Z,10.23
2023-04-22T02:12:36.809Z,12.02
2023-04-22T02:15:04.392Z,15.13
2023-04-22T02:17:31.549Z,12.60
2023-04-22T02:19:58.730Z,14.00
2023-04-22T02:22:25.997Z,16.77
2023-04-22T02:24:53.211Z,11.95
2023-04-22T02:27:20.384Z,11.65
2023-04-22T02:29:48.514Z,9.35
2023-04-22T02:32:17.462Z,11.93
2023-04-22T02:34:44.697Z,9.35
2023-04-22T02:37:11.834Z,9.52
2023-04-22T02:39:39.192Z,11.27
2023-04-22T02:42:06.567Z,11.20
2023-04-22T02:44:33.937Z,12.13
2023-04-22T02:47:01.594Z,14.05
2023-04-22T02:49:28.788Z,15.75
2023-04-22T02:51:57.324Z,15.02
2023-04-22T02:54:24.548Z,14.68
2023-04-22T02:56:51.734Z,16.83
2023-04-22T02:59:18.972Z,12.77
2023-04-22T03:01:46.133Z,10.63
2023-04-22T03:04:14.497Z,13.40
2023-04-22T03:06:41.741Z,10.68
2023-04-22T03:09:08.968Z,12.95
2023-04-22T03:11:36.265Z,13.30
2023-04-22T03:14:03.393Z,12.02
2023-04-22T03:16:30.832Z,14.13
2023-04-22T03:18:57.931Z,15.48
2023-04-22T03:21:25.107Z,16.88
2023-04-22T03:23:52.239Z,17.60
2023-04-22T03:26:19.423Z,17.77
2023-04-22T03:28:46.574Z,12.93
2023-04-22T03:31:13.767Z,17.08
2023-04-22T03:33:41.057Z,14.32
2023-04-22T03:36:08.359Z,17.83
2023-04-22T03:38:35.518Z,14.75
2023-04-22T03:41:02.670Z,18.70
2023-04-22T03:43:29.836Z,17.00
2023-04-22T03:45:57.588Z,15.18
2023-04-22T03:48:24.739Z,14.70
2023-04-22T03:50:51.811Z,15.82
2023-04-22T03:53:19.113Z,17.98
2023-04-22T03:55:46.767Z,16.83
2023-04-22T03:58:13.930Z,16.85
2023-04-22T04:00:41.306Z,13.85
2023-04-22T04:03:08.556Z,16.42
2023-04-22T04:05:35.985Z,17.52
2023-04-22T04:08:03.523Z,14.30
2023-04-22T04:10:30.842Z,15.00
2023-04-22T04:12:58.480Z,13.48
2023-04-22T04:15:25.740Z,16.75
2023-04-22T04:17:53.029Z,16.55
2023-04-22T04:20:20.197Z,15.95
2023-04-22T04:22:47.346Z,12.15
2023-04-22T04:25:14.466Z,12.20
2023-04-22T04:27:41.833Z,13.15
2023-04-22T04:30:10.104Z,14.98
2023-04-22T04:32:37.238Z,11.77
2023-04-22T04:35:04.863Z,16.80
2023-04-22T04:37:32.140Z,19.67
2023-04-22T04:39:59.512Z,17.95
2023-04-22T04:42:26.631Z,12.05
2023-04-22T04:44:53.939Z,8.32
2023-04-22T04:47:22.836Z,10.20
2023-04-22T04:49:50.377Z,10.25
2023-04-22T04:52:17.577Z,10.40
2023-04-22T04:54:45.008Z,10.77
2023-04-22T04:57:12.214Z,8.77
2023-04-22T04:59:39.711Z,12.93
2023-04-22T05:02:07.163Z,8.45
2023-04-22T05:04:34.613Z,11.07
2023-04-22T05:07:01.877Z,12.10
2023-04-22T05:09:29.053Z,9.73
2023-04-22T05:11:56.302Z,9.15
2023-04-22T05:14:23.472Z,12.02
2023-04-22T05:16:50.837Z,16.98
2023-04-22T05:19:18.149Z,18.80
2023-04-22T05:21:45.294Z,12.45
2023-04-22T05:24:12.564Z,11.75
2023-04-22T05:26:39.886Z,9.98
2023-04-22T05:29:08.265Z,11.93
2023-04-22T05:31:35.433Z,12.75
2023-04-22T05:34:02.687Z,14.30
2023-04-22T05:36:31.586Z,14.95
2023-04-22T05:38:58.871Z,13.32
2023-04-22T05:41:26.488Z,16.63
2023-04-22T05:43:53.705Z,11.27
2023-04-22T05:46:20.974Z,14.18
2023-04-22T05:48:48.986Z,13.80
2023-04-22T05:51:16.138Z,16.88
2023-04-22T05:53:43.353Z,13.48
2023-04-22T05:56:10.389Z,20.92
2023-04-22T05:58:38.201Z,9.45
2023-04-22T06:01:05.350Z,11.45
2023-04-22T06:03:32.841Z,14.20
2023-04-22T06:06:00.996Z,10.32
2023-04-22T06:08:30.656Z,14.40
2023-04-22T06:10:57.882Z,32.58
2023-04-22T06:13:25.697Z,14.15
2023-04-22T06:15:52.873Z,13.13
2023-04-22T06:18:20.167Z,16.08
2023-04-22T06:20:47.337Z,10.68
2023-04-22T06:23:14.441Z,15.80
2023-04-22T06:25:41.528Z,28.98
2023-04-22T06:28:08.762Z,32.20
2023-04-22T06:30:35.916Z,14.40
2023-04-22T06:33:03.074Z,14.20
2023-04-22T06:35:30.258Z,17.08
2023-04-22T06:37:57.499Z,12.25
2023-04-22T06:40:24.879Z,12.50
2023-04-22T06:42:51.970Z,11.65
2023-04-22T06:45:19.668Z,14.90
2023-04-22T06:47:47.523Z,13.52
2023-04-22T06:50:14.710Z,17.08
2023-04-22T06:52:42.304Z,12.02
2023-04-22T06:55:09.905Z,10.27
2023-04-22T06:57:36.994Z,17.08
2023-04-22T07:00:10.902Z,9.02
2023-04-22T07:02:38.129Z,12.20
2023-04-22T07:05:05.976Z,11.82
2023-04-22T07:07:33.159Z,11.60
2023-04-22T07:10:00.402Z,20.50
2023-04-22T07:12:27.604Z,33.95
2023-04-22T07:14:54.802Z,20.77
2023-04-22T07:17:22.902Z,22.58
2023-04-22T07:19:50.333Z,24.73
2023-04-22T07:22:17.761Z,26.95
2023-04-22T07:24:44.955Z,19.02
2023-04-22T07:27:12.103Z,17.08
2023-04-22T07:29:39.509Z,14.43
2023-04-22T07:32:06.978Z,22.88
2023-04-22T07:34:34.224Z,19.05
2023-04-22T07:37:02.081Z,25.75
2023-04-22T07:39:29.282Z,12.52
2023-04-22T07:41:57.169Z,18.33
2023-04-22T07:44:24.548Z,13.80
2023-04-22T07:46:52.095Z,17.02
2023-04-22T07:49:20.138Z,9.30
2023-04-22T07:51:47.394Z,13.40
2023-04-22T07:54:14.784Z,13.52
2023-04-22T07:56:42.030Z,11.05
2023-04-22T07:59:09.217Z,8.70
2023-04-22T08:01:36.679Z,5.40
2023-04-22T08:04:04.047Z,8.48
2023-04-22T08:06:32.114Z,6.13
2023-04-22T08:08:59.299Z,8.55
2023-04-22T08:11:26.920Z,6.35
2023-04-22T08:13:54.247Z,6.85
2023-04-22T08:16:21.805Z,5.38
2023-04-22T08:18:49.039Z,8.55
2023-04-22T08:21:16.302Z,8.45
2023-04-22T08:23:43.471Z,7.57
2023-04-22T08:26:15.425Z,7.47
2023-04-22T08:28:42.924Z,11.20
2023-04-22T08:31:11.994Z,9.20
2023-04-22T08:33:41.817Z,7.45
2023-04-22T08:36:11.759Z,8.82
2023-04-22T08:38:39.193Z,8.35
2023-04-22T08:41:07.454Z,7.97
2023-04-22T08:43:34.811Z,7.75
2023-04-22T08:46:02.432Z,8.00
2023-04-22T08:48:29.743Z,9.75
2023-04-22T08:50:58.120Z,9.60
2023-04-22T08:53:25.313Z,10.80
2023-04-22T08:55:54.460Z,9.18
2023-04-22T08:58:23.104Z,9.57
2023-04-22T09:00:51.508Z,6.40
2023-04-22T09:03:23.493Z,7.47
2023-04-22T09:05:53.309Z,10.10
2023-04-22T09:08:21.546Z,7.25
2023-04-22T09:10:51.277Z,6.90
2023-04-22T09:13:20.032Z,7.78
2023-04-22T09:15:48.178Z,6.57
2023-04-22T09:18:19.147Z,7.47
2023-04-22T09:20:49.034Z,7.20
2023-04-22T09:23:16.468Z,7.72
2023-04-22T09:25:46.597Z,8.07
2023-04-22T09:28:19.065Z,7.93
2023-04-22T09:30:47.159Z,11.05
2023-04-22T09:33:14.346Z,7.50
2023-04-22T09:35:43.335Z,6.00
2023-04-22T09:38:13.016Z,9.18
2023-04-22T09:40:43.933Z,6.15
2023-04-22T09:43:11.768Z,7.40
2023-04-22T09:45:41.712Z,12.32
2023-04-22T09:48:14.791Z,11.27
2023-04-22T09:50:48.830Z,11.00
2023-04-22T09:53:19.237Z,11.20
2023-04-22T09:55:51.966Z,7.15
2023-04-22T09:58:23.805Z,7.47
2023-04-22T10:00:57.119Z,15.80
2023-04-22T10:03:24.586Z,9.43
2023-04-22T10:05:51.799Z,10.73
2023-04-22T10:08:19.077Z,12.00
2023-04-22T10:10:46.485Z,11.38
2023-04-22T10:13:13.786Z,12.60
2023-04-22T10:15:52.732Z,11.27
2023-04-22T10:18:23.584Z,11.20
2023-04-22T10:20:51.641Z,9.98
2023-04-22T10:23:25.304Z,16.15
2023-04-22T10:25:56.997Z,9.32
2023-04-22T10:28:28.080Z,10.53
2023-04-22T10:30:55.482Z,8.30
2023-04-22T10:33:28.750Z,9.50
2023-04-22T10:36:17.778Z,13.48
2023-04-22T10:38:50.731Z,24.35
2023-04-22T10:41:23.926Z,7.38
2023-04-22T10:44:07.334Z,10.63
2023-04-22T10:46:38.063Z,13.50
2023-04-22T10:49:23.239Z,5.80
2023-04-22T10:52:06.252Z,8.73
2023-04-22T10:54:39.370Z,15.95
2023-04-22T10:57:15.486Z,9.05
2023-04-22T10:59:54.095Z,6.30
2023-04-22T11:02:22.912Z,9.55
2023-04-22T11:04:51.213Z,8.95
2023-04-22T11:07:31.823Z,6.40
2023-04-22T11:10:09.988Z,9.57
2023-04-22T11:12:39.673Z,13.57
2023-04-22T11:15:10.687Z,12.85
2023-04-22T11:17:40.002Z,10.25
2023-04-22T11:20:08.437Z,15.02
2023-04-22T11:22:40.061Z,7.18
2023-04-22T11:25:09.408Z,13.03
2023-04-22T11:27:37.191Z,8.88
2023-04-22T11:30:13.090Z,7.15
2023-04-22T11:32:46.150Z,9.70
2023-04-22T11:35:24.526Z,14.10
2023-04-22T11:38:05.068Z,7.68
2023-04-22T11:40:46.716Z,9.05
2023-04-22T11:43:14.719Z,15.20
2023-04-22T11:45:42.526Z,12.57
2023-04-22T11:48:11.982Z,10.18
2023-04-22T11:50:40.546Z,16.85
2023-04-22T11:53:23.896Z,23.30
2023-04-22T11:55:52.047Z,20.88
2023-04-22T11:58:24.572Z,86.70
2023-04-22T12:03:21.076Z,12.70
2023-04-22T12:05:55.242Z,12.63
2023-04-22T12:08:24.494Z,10.57
2023-04-22T12:10:55.272Z,13.98
2023-04-22T12:13:29.922Z,11.52
2023-04-22T12:15:58.731Z,10.13
2023-04-22T12:18:32.891Z,9.63
2023-04-22T12:21:21.928Z,21.40
2023-04-22T12:23:59.121Z,40.78
2023-04-22T12:26:27.942Z,11.57
2023-04-22T12:28:59.090Z,14.88
2023-04-22T12:31:27.133Z,8.82
2023-04-22T12:33:54.638Z,12.38
2023-04-22T12:36:22.068Z,18.77
2023-04-22T12:38:49.821Z,13.10
2023-04-22T12:41:17.257Z,7.60
2023-04-22T12:43:44.649Z,20.48
2023-04-22T12:46:11.881Z,14.50
2023-04-22T12:48:39.095Z,8.27
2023-04-22T12:51:07.386Z,8.05
2023-04-22T12:53:34.968Z,9.85
2023-04-22T12:56:02.163Z,9.65
2023-04-22T12:58:29.529Z,13.65
2023-04-22T13:00:56.678Z,9.27
2023-04-22T13:03:24.125Z,19.00
2023-04-22T13:05:52.253Z,11.57
2023-04-22T13:08:19.423Z,11.73
2023-04-22T13:10:46.610Z,10.32
2023-04-22T13:13:18.439Z,10.65
2023-04-22T13:15:53.884Z,15.82
2023-04-22T13:18:23.779Z,9.52
2023-04-22T13:20:51.654Z,9.63
2023-04-22T13:23:21.996Z,8.70
2023-04-22T13:25:50.588Z,9.82
2023-04-22T13:28:17.859Z,7.15
2023-04-22T13:30:45.261Z,9.35
2023-04-22T13:33:12.447Z,7.95
2023-04-22T13:35:39.723Z,7.40
2023-04-22T13:38:07.369Z,9.20
2023-04-22T13:40:34.743Z,8.80
2023-04-22T13:43:02.022Z,7.78
2023-04-22T13:45:29.205Z,8.18
2023-04-22T13:47:56.441Z,10.68
2023-04-22T13:50:24.211Z,9.93
2023-04-22T13:52:51.385Z,6.97
2023-04-22T13:55:18.636Z,5.97
2023-04-22T13:57:46.014Z,10.98
2023-04-22T14:00:13.831Z,8.35
2023-04-22T14:02:41.096Z,6.55
2023-04-22T14:05:09.976Z,9.13
2023-04-22T14:07:37.269Z,9.63
2023-04-22T14:10:05.930Z,6.07
2023-04-22T14:12:33.061Z,6.25
2023-04-22T14:15:00.180Z,8.57
2023-04-22T14:17:27.987Z,7.50
2023-04-22T14:19:55.256Z,8.23
2023-04-22T14:22:22.358Z,6.00
2023-04-22T14:24:49.451Z,6.07
2023-04-22T14:27:16.603Z,9.52
2023-04-22T14:29:44.085Z,13.27
2023-04-22T14:32:11.319Z,10.80
2023-04-22T14:34:39.544Z,7.10
2023-04-22T14:37:07.342Z,14.23
2023-04-22T14:39:34.441Z,6.72
2023-04-22T14:42:02.716Z,11.23
2023-04-22T14:44:29.898Z,8.10
2023-04-22T14:46:57.120Z,5.85
2023-04-22T14:49:24.265Z,8.75
2023-04-22T14:51:51.422Z,6.53
2023-04-22T14:54:18.653Z,7.25
2023-04-22T14:56:45.946Z,7.72
2023-04-22T14:59:12.998Z,7.57
2023-04-22T15:01:41.930Z,4.68
2023-04-22T15:04:16.174Z,9.43
2023-04-22T15:06:43.372Z,7.53
2023-04-22T15:09:11.269Z,7.00
2023-04-22T15:11:38.425Z,14.50
2023-04-22T15:14:05.586Z,6.05
2023-04-22T15:16:32.785Z,4.43
2023-04-22T15:19:00.526Z,7.97
2023-04-22T15:21:28.194Z,4.95
2023-04-22T15:23:55.348Z,6.38
2023-04-22T15:26:22.428Z,7.03
2023-04-22T15:28:51.096Z,7.10
2023-04-22T15:31:20.842Z,4.22
2023-04-22T15:33:48.055Z,8.68
2023-04-22T15:36:18.339Z,7.03
2023-04-22T15:38:45.503Z,5.80
2023-04-22T15:41:12.865Z,5.93
2023-04-22T15:43:39.932Z,6.03
2023-04-22T15:46:08.571Z,8.63
2023-04-22T15:48:35.773Z,4.72
2023-04-22T15:51:02.997Z,10.07
2023-04-22T15:53:30.133Z,4.70
2023-04-22T15:55:58.163Z,6.90
2023-04-22T15:58:25.322Z,5.93
2023-04-22T16:00:52.457Z,7.88
2023-04-22T16:03:20.146Z,6.72
2023-04-22T16:05:47.501Z,8.52
2023-04-22T16:08:14.711Z,7.57
2023-04-22T16:10:42.199Z,11.25
2023-04-22T16:13:10.892Z,6.40
2023-04-22T16:15:38.350Z,13.45
2023-04-22T16:18:05.848Z,8.82
2023-04-22T16:20:32.963Z,7.18
2023-04-22T16:23:00.183Z,48.80
2023-04-22T16:25:28.212Z,9.75
2023-04-22T16:27:55.677Z,15.13
2023-04-22T16:30:23.283Z,65.10
2023-04-22T16:32:50.718Z,54.72
2023-04-22T16:35:18.020Z,27.20
2023-04-22T16:37:46.759Z,32.22
2023-04-22T16:40:13.988Z,18.40
2023-04-22T16:42:41.253Z,22.77
2023-04-22T16:45:08.761Z,28.73
2023-04-22T16:47:36.189Z,14.95
2023-04-22T16:50:03.945Z,13.35
2023-04-22T16:52:32.206Z,15.82
2023-04-22T16:55:00.532Z,18.90
2023-04-22T16:57:27.680Z,10.93
2023-04-22T16:59:55.371Z,6.32
2023-04-22T17:02:22.782Z,9.82
2023-04-22T17:04:50.169Z,7.70
2023-04-22T17:07:23.275Z,10.70
2023-04-22T17:09:51.087Z,7.80
2023-04-22T17:12:18.670Z,8.13
2023-04-22T17:14:46.234Z,7.03
2023-04-22T17:17:13.948Z,9.65
2023-04-22T17:19:43.180Z,9.15
2023-04-22T17:22:10.878Z,10.90
2023-04-22T17:24:38.083Z,7.47
2023-04-22T17:27:05.420Z,14.13
2023-04-22T17:29:32.608Z,10.57
2023-04-22T17:31:59.789Z,17.80
2023-04-22T17:34:27.622Z,14.95
2023-04-22T17:36:54.797Z,13.98
2023-04-22T17:39:22.264Z,13.68
2023-04-22T17:41:50.060Z,14.02
2023-04-22T17:44:17.221Z,12.05
2023-04-22T17:46:44.419Z,16.52
2023-04-22T17:49:14.525Z,21.00
2023-04-22T17:51:41.969Z,14.57
2023-04-22T17:54:11.567Z,21.95
2023-04-22T17:56:39.148Z,18.33
2023-04-22T17:59:06.421Z,18.35
2023-04-22T18:01:33.851Z,18.42
2023-04-22T18:04:02.433Z,22.23
2023-04-22T18:06:30.101Z,24.00
2023-04-22T18:08:57.750Z,27.85
2023-04-22T18:11:25.270Z,28.02
2023-04-22T18:13:52.815Z,23.42
2023-04-22T18:16:21.488Z,20.95
2023-04-22T18:18:48.727Z,13.43
2023-04-22T18:21:32.239Z,14.38
2023-04-22T18:23:59.789Z,16.05
2023-04-22T18:26:27.350Z,13.00
2023-04-22T18:28:57.870Z,15.30
2023-04-22T18:31:25.601Z,20.88
2023-04-22T18:33:54.541Z,11.85
2023-04-22T18:36:23.749Z,9.73
2023-04-22T18:38:51.088Z,16.55
2023-04-22T18:41:18.607Z,12.65
2023-04-22T18:43:48.147Z,15.98
2023-04-22T18:46:36.106Z,15.27
2023-04-22T18:49:03.550Z,13.93
2023-04-22T18:51:31.498Z,15.57
2023-04-22T18:53:58.789Z,16.35
2023-04-22T18:56:26.795Z,20.25
2023-04-22T18:58:55.335Z,17.08
2023-04-22T19:01:22.703Z,21.23
2023-04-22T19:03:50.031Z,26.88
2023-04-22T19:06:18.315Z,28.77
2023-04-22T19:08:46.719Z,24.63
2023-04-22T19:11:13.969Z,24.65
2023-04-22T19:13:42.105Z,30.38
2023-04-22T19:16:10.029Z,23.35
2023-04-22T19:18:37.509Z,20.65
2023-04-22T19:21:07.475Z,26.45
2023-04-22T19:23:36.846Z,19.80
2023-04-22T19:26:04.661Z,21.63
2023-04-22T19:28:32.402Z,19.45
2023-04-22T19:31:01.122Z,16.75
2023-04-22T19:33:28.558Z,19.15
2023-04-22T19:35:56.415Z,17.70
2023-04-22T19:38:24.628Z,17.17
2023-04-22T19:40:51.840Z,19.05
2023-04-22T19:43:19.644Z,21.25
2023-04-22T19:45:46.864Z,18.73
2023-04-22T19:48:14.273Z,18.17
2023-04-22T19:50:43.833Z,21.63
2023-04-22T19:53:11.407Z,22.75
2023-04-22T19:55:38.988Z,31.38
2023-04-22T19:58:06.849Z,37.75
2023-04-22T20:00:35.401Z,42.20
2023-04-22T20:03:03.116Z,45.97
2023-04-22T20:05:30.861Z,47.72
2023-04-22T20:07:58.995Z,60.17
2023-04-22T20:10:27.178Z,67.88
2023-04-22T20:12:54.863Z,55.42
2023-04-22T20:15:22.373Z,54.65
2023-04-22T20:17:53.438Z,40.80
2023-04-22T20:20:21.757Z,39.97
2023-04-22T20:22:51.233Z,55.53
2023-04-22T20:25:19.027Z,32.92
2023-04-22T20:27:54.557Z,28.42
2023-04-22T20:30:24.002Z,28.67
2023-04-22T20:32:51.667Z,44.60
2023-04-22T20:35:19.423Z,33.03
2023-04-22T20:37:48.227Z,41.40
2023-04-22T20:40:16.310Z,39.08
2023-04-22T20:42:45.551Z,37.05
2023-04-22T20:45:15.794Z,33.40
2023-04-22T20:47:43.376Z,29.88
2023-04-22T20:50:11.033Z,31.65
2023-04-22T20:52:39.147Z,23.05
2023-04-22T20:55:07.700Z,23.20
2023-04-22T20:57:36.403Z,23.20
2023-04-22T21:00:04.693Z,25.98
2023-04-22T21:02:34.068Z,24.23
2023-04-22T21:05:02.271Z,22.95
2023-04-22T21:07:31.250Z,21.58
2023-04-22T21:09:58.686Z,19.27
2023-04-22T21:12:26.138Z,22.73
2023-04-22T21:14:53.742Z,18.00
2023-04-22T21:17:29.900Z,19.98
2023-04-22T21:19:58.267Z,18.83
2023-04-22T21:22:25.822Z,22.92
2023-04-22T21:24:54.610Z,23.00
2023-04-22T21:27:24.389Z,24.70
2023-04-22T21:29:51.854Z,22.15
2023-04-22T21:32:21.084Z,21.38
2023-04-22T21:34:52.240Z,21.65
2023-04-22T21:37:21.246Z,20.50
2023-04-22T21:39:48.518Z,19.60
2023-04-22T21:42:19.299Z,18.70
2023-04-22T21:44:50.004Z,21.77
2023-04-22T21:47:17.826Z,20.17
2023-04-22T21:49:50.726Z,17.38
2023-04-22T21:52:18.084Z,25.02
2023-04-22T21:54:49.710Z,27.75
2023-04-22T21:57:16.944Z,27.73
2023-04-22T21:59:44.352Z,18.95
2023-04-22T22:02:18.130Z,17.73
2023-04-22T22:04:47.161Z,16.70
2023-04-22T22:07:17.749Z,17.55
2023-04-22T22:09:46.597Z,18.67
2023-04-22T22:12:15.846Z,14.48
2023-04-22T22:14:46.362Z,19.50
2023-04-22T22:17:21.077Z,17.13
2023-04-22T22:19:50.542Z,16.67
2023-04-22T22:22:23.495Z,18.50
2023-04-22T22:24:56.575Z,16.55
2023-04-22T22:27:33.575Z,14.20
2023-04-22T22:30:01.158Z,17.33
2023-04-22T22:32:29.081Z,16.27
2023-04-22T22:34:56.227Z,16.95
2023-04-22T22:37:27.730Z,17.55
2023-04-22T22:39:56.933Z,16.63
2023-04-22T22:42:24.667Z,12.88
2023-04-22T22:44:52.005Z,19.33
2023-04-22T22:47:20.537Z,15.15
2023-04-22T22:49:47.808Z,14.52
2023-04-22T22:52:14.952Z,15.23
2023-04-22T22:54:43.018Z,14.98
2023-04-22T22:57:19.430Z,15.07
2023-04-22T22:59:48.129Z,18.25
2023-04-22T23:02:18.797Z,16.63
2023-04-22T23:04:46.726Z,15.05
2023-04-22T23:07:18.839Z,16.63
2023-04-22T23:09:48.941Z,16.10
2023-04-22T23:12:16.543Z,17.02
2023-04-22T23:14:44.267Z,14.23
2023-04-22T23:17:11.528Z,14.98
2023-04-22T23:19:51.359Z,16.05
2023-04-22T23:22:19.754Z,18.15
2023-04-22T23:24:47.389Z,15.10
2023-04-22T23:27:20.364Z,15.80
2023-04-22T23:29:48.559Z,14.82
2023-04-22T23:32:20.053Z,16.42
2023-04-22T23:34:50.684Z,11.70
2023-04-22T23:37:20.145Z,14.27
2023-04-22T23:39:47.400Z,11.30
2023-04-22T23:42:14.568Z,14.40
2023-04-22T23:44:42.054Z,15.15
2023-04-22T23:47:09.491Z,14.52
2023-04-22T23:49:36.820Z,12.55
2023-04-22T23:52:04.069Z,19.67
2023-04-22T23:54:31.390Z,14.48
2023-04-22T23:56:58.857Z,16.95
2023-04-22T23:59:26.235Z,15.98
